createdAt,value
2019-04-30T00:01:19.403Z,67.20
2019-04-30T00:04:05.615Z,67.90
2019-04-30T00:06:39.339Z,62.20
2019-04-30T00:09:09.750Z,62.10
2019-04-30T00:11:40.351Z,62.20
2019-04-30T00:14:38.638Z,62.70
2019-04-30T00:17:10.744Z,63.00
2019-04-30T00:19:39.826Z,62.70
2019-04-30T00:22:12.584Z,70.10
2019-04-30T00:24:46.887Z,63.00
2019-04-30T00:27:32.652Z,64.00
2019-04-30T00:30:08.673Z,63.80
2019-04-30T00:32:43.437Z,59.90
2019-04-30T00:35:11.876Z,63.70
2019-04-30T00:37:41.529Z,70.10
2019-04-30T00:40:11.453Z,70.40
2019-04-30T00:42:45.782Z,69.70
2019-04-30T00:47:47.863Z,70.40
2019-04-30T00:50:17.133Z,70.90
2019-04-30T00:52:46.852Z,70.60
2019-04-30T00:55:16.564Z,70.80
2019-04-30T00:57:47.626Z,70.10
2019-04-30T01:00:25.086Z,70.30
2019-04-30T01:03:00.939Z,68.50
2019-04-30T01:05:30.219Z,69.00
2019-04-30T01:07:59.943Z,68.40
2019-04-30T01:10:29.847Z,68.90
2019-04-30T01:13:07.344Z,68.10
2019-04-30T01:15:30.968Z,68.40
2019-04-30T01:18:00.857Z,68.70
2019-04-30T01:20:32.692Z,68.90
2019-04-30T01:23:07.127Z,68.80
2019-04-30T01:25:34.506Z,69.50
2019-04-30T01:28:04.423Z,68.70
2019-04-30T01:30:34.183Z,69.40
2019-04-30T01:35:34.290Z,70.30
2019-04-30T01:38:08.291Z,70.00
2019-04-30T01:45:34.115Z,71.00
2019-04-30T01:48:08.594Z,70.30
2019-04-30T01:50:48.817Z,70.50
2019-04-30T01:56:22.865Z,71.30
2019-04-30T01:59:25.745Z,71.10
2019-04-30T02:02:44.894Z,71.00
2019-04-30T02:05:21.340Z,66.00
2019-04-30T02:08:08.464Z,65.80
2019-04-30T02:10:36.009Z,70.60
2019-04-30T02:18:43.884Z,66.50
2019-04-30T02:21:19.636Z,69.10
2019-04-30T02:24:04.087Z,67.10
2019-04-30T02:26:53.660Z,71.20
2019-04-30T02:29:40.715Z,66.60
2019-04-30T02:32:52.447Z,71.50
2019-04-30T02:52:34.478Z,72.60
2019-04-30T02:54:39.618Z,72.70
2019-04-30T02:57:15.694Z,72.10
2019-04-30T03:00:09.976Z,67.00
2019-04-30T03:03:10.246Z,73.20
2019-04-30T03:09:05.615Z,68.40
2019-04-30T03:20:35.991Z,69.60
2019-04-30T03:38:03.535Z,74.60
2019-04-30T03:42:09.996Z,69.40
2019-04-30T03:43:50.147Z,69.20
2019-04-30T03:50:14.578Z,68.60
2019-04-30T04:11:30.620Z,75.60
2019-04-30T04:14:45.788Z,76.10
2019-04-30T04:18:01.903Z,75.40
2019-04-30T04:20:33.291Z,76.00
2019-04-30T04:23:11.731Z,75.50
2019-04-30T04:26:03.700Z,76.00
2019-04-30T04:31:06.142Z,76.30
2019-04-30T04:33:35.791Z,76.10
2019-04-30T04:36:05.655Z,67.60
2019-04-30T04:38:54.296Z,75.00
2019-04-30T04:41:24.022Z,76.30
2019-04-30T04:43:53.702Z,76.00
2019-04-30T04:46:42.442Z,75.10
2019-04-30T04:49:13.436Z,76.20
2019-04-30T04:51:43.337Z,75.80
2019-04-30T04:54:12.944Z,76.20
2019-04-30T04:56:42.540Z,76.90
2019-04-30T04:59:12.263Z,75.70
2019-04-30T05:01:42.015Z,76.00
2019-04-30T05:04:11.953Z,76.30
2019-04-30T05:06:41.805Z,76.60
2019-04-30T05:11:40.453Z,76.30
2019-04-30T05:14:10.975Z,76.30
2019-04-30T05:16:40.789Z,75.50
2019-04-30T05:19:10.430Z,75.70
2019-04-30T05:21:44.528Z,75.90
2019-04-30T05:24:11.489Z,75.80
2019-04-30T05:26:42.635Z,75.80
2019-04-30T05:29:12.197Z,75.30
2019-04-30T05:31:41.825Z,74.70
2019-04-30T05:34:11.452Z,74.50
2019-04-30T05:36:41.286Z,74.70
2019-04-30T05:39:10.873Z,75.20
2019-04-30T05:41:41.176Z,75.00
2019-04-30T05:44:11.161Z,75.40
2019-04-30T05:46:49.282Z,74.00
2019-04-30T05:51:55.455Z,74.20
2019-04-30T05:54:20.767Z,73.90
2019-04-30T05:56:51.505Z,73.30
2019-04-30T05:59:22.194Z,73.30
2019-04-30T06:01:51.921Z,72.50
2019-04-30T06:04:21.820Z,72.80
2019-04-30T06:09:34.991Z,70.90
2019-04-30T06:12:29.747Z,70.50
2019-04-30T06:15:11.866Z,71.20
2019-04-30T06:17:42.328Z,70.80
2019-04-30T06:20:18.278Z,70.20
2019-04-30T06:22:45.351Z,70.00
2019-04-30T06:25:26.846Z,71.10
2019-04-30T06:27:48.813Z,71.80
2019-04-30T06:30:20.912Z,71.90
2019-04-30T06:32:53.400Z,72.20
2019-04-30T06:40:26.810Z,71.40
2019-04-30T06:43:09.075Z,72.10
2019-04-30T06:45:39.111Z,71.60
2019-04-30T06:48:09.194Z,71.50
2019-04-30T06:50:39.490Z,70.60
2019-04-30T06:53:09.462Z,69.80
2019-04-30T06:55:40.758Z,69.40
2019-04-30T06:58:15.173Z,70.00
2019-04-30T07:00:41.813Z,69.50
2019-04-30T07:03:16.121Z,69.50
2019-04-30T07:05:45.869Z,69.00
2019-04-30T07:08:54.907Z,68.70
2019-04-30T07:11:39.294Z,63.40
2019-04-30T07:14:09.643Z,62.90
2019-04-30T07:16:47.212Z,69.40
2019-04-30T07:21:49.624Z,60.40
2019-04-30T07:24:20.963Z,73.10
2019-04-30T07:27:10.624Z,67.50
2019-04-30T07:29:43.204Z,62.60
2019-04-30T07:32:15.373Z,51.00
2019-04-30T07:34:49.516Z,63.40
2019-04-30T07:39:55.832Z,61.00
2019-04-30T07:42:25.666Z,59.80
2019-04-30T07:44:56.998Z,58.10
2019-04-30T07:47:29.544Z,55.50
2019-04-30T07:50:03.534Z,58.60
2019-04-30T07:52:34.645Z,59.40
2019-04-30T07:55:05.138Z,58.20
2019-04-30T07:57:45.306Z,59.10
2019-04-30T08:00:19.363Z,60.00
2019-04-30T08:03:05.037Z,57.90
2019-04-30T08:05:41.715Z,57.80
2019-04-30T08:08:21.097Z,58.10
2019-04-30T08:13:15.458Z,56.90
2019-04-30T08:18:14.517Z,54.70
2019-04-30T08:20:44.436Z,52.00
2019-04-30T08:23:24.950Z,47.70
2019-04-30T08:25:45.450Z,53.20
2019-04-30T08:28:22.668Z,53.40
2019-04-30T08:30:53.243Z,48.50
2019-04-30T08:33:22.878Z,44.60
2019-04-30T08:35:52.537Z,45.40
2019-04-30T08:38:25.298Z,45.30
2019-04-30T08:40:58.107Z,45.60
2019-04-30T08:43:24.814Z,44.60
2019-04-30T08:45:54.442Z,43.20
2019-04-30T08:48:24.227Z,43.00
2019-04-30T08:50:55.154Z,42.90
2019-04-30T08:53:29.288Z,43.40
2019-04-30T08:55:56.188Z,44.40
2019-04-30T08:58:25.962Z,42.70
2019-04-30T09:00:55.584Z,42.40
2019-04-30T09:03:25.186Z,43.20
2019-04-30T09:06:04.868Z,42.50
2019-04-30T09:08:35.259Z,42.70
2019-04-30T09:11:38.502Z,42.20
2019-04-30T09:14:03.148Z,41.60
2019-04-30T09:16:32.987Z,40.60
2019-04-30T09:19:36.180Z,40.80
2019-04-30T09:22:19.523Z,40.70
2019-04-30T09:25:01.192Z,40.30
2019-04-30T09:27:59.076Z,39.90
2019-04-30T09:30:40.947Z,39.70
2019-04-30T09:36:15.839Z,39.50
2019-04-30T09:36:45.519Z,39.60
2019-04-30T09:38:45.725Z,39.80
2019-04-30T09:41:15.775Z,39.50
2019-04-30T09:44:00.319Z,38.70
2019-04-30T09:46:30.217Z,38.40
2019-04-30T09:48:59.967Z,38.30
2019-04-30T09:54:34.682Z,37.50
2019-04-30T09:57:11.473Z,36.90
2019-04-30T10:06:36.309Z,35.50
2019-04-30T10:08:59.773Z,35.20
2019-04-30T10:12:03.666Z,34.70
2019-04-30T10:14:40.959Z,34.60
2019-04-30T10:17:48.032Z,34.40
2019-04-30T10:20:23.827Z,33.70
2019-04-30T10:23:03.118Z,34.20
2019-04-30T10:25:36.502Z,34.60
2019-04-30T10:28:10.002Z,35.10
2019-04-30T10:30:41.590Z,34.20
2019-04-30T10:33:11.406Z,33.90
2019-04-30T10:35:56.142Z,33.70
2019-04-30T10:38:41.188Z,33.50
2019-04-30T10:41:51.443Z,33.80
2019-04-30T10:48:37.781Z,33.40
2019-04-30T10:51:14.505Z,32.60
2019-04-30T10:53:48.629Z,32.40
2019-04-30T10:56:20.004Z,32.00
2019-04-30T10:58:55.886Z,31.70
2019-04-30T11:01:29.064Z,31.70
2019-04-30T11:12:29.235Z,31.30
2019-04-30T11:14:38.063Z,30.80
2019-04-30T11:20:46.103Z,30.00
2019-04-30T11:23:22.311Z,30.20
2019-04-30T11:26:03.367Z,30.30
2019-04-30T11:28:50.509Z,30.70
2019-04-30T11:32:25.778Z,30.20
2019-04-30T11:34:58.488Z,30.80
2019-04-30T11:38:20.543Z,30.60
2019-04-30T11:41:01.149Z,30.40
2019-04-30T11:43:44.011Z,30.00
2019-04-30T11:48:21.175Z,29.90
2019-04-30T11:50:24.430Z,29.10
2019-04-30T11:53:42.156Z,29.30
2019-04-30T11:56:59.464Z,28.70
2019-04-30T11:59:29.734Z,29.00
2019-04-30T12:02:16.867Z,28.70
2019-04-30T12:05:05.304Z,29.40
2019-04-30T12:08:16.366Z,28.90
2019-04-30T12:11:11.097Z,28.60
2019-04-30T12:13:48.389Z,28.70
2019-04-30T12:16:29.548Z,28.30
2019-04-30T12:19:00.962Z,28.60
2019-04-30T12:21:31.011Z,28.50
2019-04-30T12:24:00.905Z,28.10
2019-04-30T12:26:52.582Z,27.90
2019-04-30T12:29:22.672Z,27.70
2019-04-30T12:31:52.386Z,28.00
2019-04-30T12:34:24.222Z,28.00
2019-04-30T12:36:55.941Z,28.10
2019-04-30T12:39:28.435Z,28.30
2019-04-30T12:42:01.975Z,28.40
2019-04-30T12:44:31.339Z,28.60
2019-04-30T12:47:04.753Z,28.10
2019-04-30T12:49:53.207Z,27.90
2019-04-30T12:52:30.042Z,27.80
2019-04-30T12:55:14.907Z,27.30
2019-04-30T12:57:55.546Z,27.00
2019-04-30T13:00:22.239Z,26.30
2019-04-30T13:02:52.058Z,26.80
2019-04-30T13:05:23.556Z,26.90
2019-04-30T13:07:53.812Z,27.30
2019-04-30T13:10:26.105Z,27.50
2019-04-30T13:12:56.760Z,26.30
2019-04-30T13:15:31.469Z,26.60
2019-04-30T13:18:03.522Z,25.90
2019-04-30T13:20:48.906Z,25.60
2019-04-30T13:23:26.117Z,25.80
2019-04-30T13:25:56.111Z,25.40
2019-04-30T13:28:54.274Z,24.90
2019-04-30T13:31:24.223Z,25.10
2019-04-30T13:34:00.940Z,25.00
2019-04-30T13:36:30.870Z,24.50
2019-04-30T13:39:22.403Z,23.90
2019-04-30T13:42:26.739Z,23.50
2019-04-30T13:44:57.466Z,23.70
2019-04-30T13:47:29.283Z,23.00
2019-04-30T13:50:03.843Z,22.70
2019-04-30T13:52:35.204Z,22.10
2019-04-30T13:55:10.952Z,21.70
2019-04-30T13:57:46.210Z,21.60
2019-04-30T14:00:23.604Z,21.30
2019-04-30T14:03:19.225Z,21.50
2019-04-30T14:05:52.190Z,21.30
2019-04-30T14:08:30.057Z,20.80
2019-04-30T14:10:59.897Z,20.70
2019-04-30T14:13:29.656Z,20.60
2019-04-30T14:15:59.478Z,20.30
2019-04-30T14:18:33.938Z,20.00
2019-04-30T14:21:02.437Z,19.40
2019-04-30T14:23:32.197Z,19.70
2019-04-30T14:26:01.943Z,19.60
2019-04-30T14:28:34.588Z,19.50
2019-04-30T14:31:06.505Z,19.30
2019-04-30T14:33:36.348Z,19.00
2019-04-30T14:36:08.877Z,18.80
2019-04-30T14:39:14.485Z,18.50
2019-04-30T14:41:39.688Z,18.40
2019-04-30T14:45:06.586Z,18.40
2019-04-30T14:51:39.527Z,18.60
2019-04-30T14:54:43.852Z,19.20
2019-04-30T14:57:43.343Z,19.30
2019-04-30T15:00:49.715Z,18.90
2019-04-30T15:03:46.813Z,18.60
2019-04-30T15:07:29.816Z,18.60
2019-04-30T15:10:09.684Z,18.60
2019-04-30T15:16:32.436Z,18.20
2019-04-30T15:19:39.290Z,18.10
2019-04-30T15:22:18.986Z,18.30
2019-04-30T15:25:34.664Z,17.80
2019-04-30T15:28:14.810Z,18.10
2019-04-30T15:30:45.834Z,18.60
2019-04-30T15:37:18.725Z,18.20
2019-04-30T15:39:45.568Z,18.10
2019-04-30T15:42:25.153Z,18.40
2019-04-30T15:45:01.743Z,18.70
2019-04-30T15:47:35.951Z,18.70
2019-04-30T15:50:06.145Z,18.60
2019-04-30T15:52:39.740Z,18.30
2019-04-30T15:55:20.678Z,18.10
2019-04-30T15:58:20.284Z,18.00
2019-04-30T16:00:59.487Z,17.90
2019-04-30T16:03:36.906Z,17.80
2019-04-30T16:06:10.795Z,17.90
2019-04-30T16:11:20.237Z,18.30
2019-04-30T16:16:50.688Z,17.90
2019-04-30T16:26:59.380Z,19.70
2019-04-30T16:45:00.611Z,22.30
2019-04-30T17:04:59.645Z,23.80
2019-04-30T17:07:50.513Z,24.20
2019-04-30T17:10:46.451Z,24.40
2019-04-30T17:16:55.312Z,24.60
2019-04-30T17:22:39.408Z,24.90
2019-04-30T17:25:39.094Z,25.00
2019-04-30T17:28:23.200Z,25.40
2019-04-30T17:31:32.012Z,25.60
2019-04-30T17:34:08.718Z,25.10
2019-04-30T17:36:49.451Z,25.40
2019-04-30T17:40:29.014Z,25.70
2019-04-30T17:43:19.156Z,25.90
2019-04-30T17:45:52.383Z,25.80
2019-04-30T17:48:23.770Z,26.40
2019-04-30T17:50:59.408Z,26.30
2019-04-30T17:53:36.333Z,26.40
2019-04-30T17:56:23.609Z,26.60
2019-04-30T17:59:11.547Z,26.60
2019-04-30T18:01:49.558Z,27.00
2019-04-30T18:04:16.390Z,27.00
2019-04-30T18:06:46.281Z,26.80
2019-04-30T18:09:19.299Z,27.00
2019-04-30T18:11:49.675Z,27.20
2019-04-30T18:14:25.992Z,27.70
2019-04-30T18:16:57.007Z,27.50
2019-04-30T18:19:39.539Z,27.30
2019-04-30T18:22:17.211Z,27.00
2019-04-30T18:24:59.273Z,27.10
2019-04-30T18:27:45.278Z,27.10
2019-04-30T18:30:32.026Z,26.70
2019-04-30T18:33:17.909Z,27.00
2019-04-30T18:35:56.665Z,26.60
2019-04-30T18:38:30.931Z,26.30
2019-04-30T18:41:02.191Z,26.60
2019-04-30T18:43:37.960Z,26.10
2019-04-30T18:46:15.996Z,26.30
2019-04-30T18:48:53.158Z,26.70
2019-04-30T18:51:38.344Z,26.10
2019-04-30T18:54:02.671Z,25.80
2019-04-30T18:56:34.057Z,26.10
2019-04-30T18:59:08.676Z,25.90
2019-04-30T19:01:36.640Z,25.90
2019-04-30T19:04:12.251Z,25.50
2019-04-30T19:06:44.353Z,25.60
2019-04-30T19:12:51.657Z,25.90
2019-04-30T19:16:17.907Z,25.80
2019-04-30T19:18:41.554Z,26.20
2019-04-30T19:21:11.389Z,26.30
2019-04-30T19:23:41.309Z,26.10
2019-04-30T19:26:12.485Z,26.10
2019-04-30T19:28:42.353Z,26.00
2019-04-30T19:31:12.790Z,26.30
2019-04-30T19:33:50.327Z,26.30
2019-04-30T19:36:33.918Z,26.30
2019-04-30T19:38:54.032Z,26.70
2019-04-30T19:41:31.914Z,26.50
2019-04-30T19:44:13.595Z,26.80
2019-04-30T19:46:45.696Z,26.50
2019-04-30T19:49:26.753Z,26.80
2019-04-30T19:52:08.519Z,26.60
2019-04-30T19:54:39.950Z,26.90
2019-04-30T19:57:23.237Z,26.70
2019-04-30T20:00:22.385Z,26.40
2019-04-30T20:02:53.465Z,26.60
2019-04-30T20:08:34.985Z,26.80
2019-04-30T20:11:10.438Z,26.80
2019-04-30T20:13:45.496Z,27.20
2019-04-30T20:16:19.588Z,27.40
2019-04-30T20:18:59.095Z,27.40
2019-04-30T20:21:50.336Z,27.30
2019-04-30T20:24:21.777Z,27.70
2019-04-30T20:27:15.781Z,27.60
2019-04-30T20:29:25.959Z,27.50
2019-04-30T20:31:55.751Z,28.10
2019-04-30T20:34:34.338Z,27.70
2019-04-30T20:37:00.364Z,28.60
2019-04-30T20:39:52.039Z,28.00
2019-04-30T20:45:18.908Z,28.80
2019-04-30T20:47:51.245Z,28.60
2019-04-30T20:50:27.169Z,29.10
2019-04-30T20:52:52.473Z,28.80
2019-04-30T20:55:42.525Z,29.00
2019-04-30T20:58:15.047Z,29.30
2019-04-30T21:01:06.979Z,29.20
2019-04-30T21:03:29.550Z,29.40
2019-04-30T21:06:05.511Z,29.20
2019-04-30T21:08:35.243Z,29.10
2019-04-30T21:11:15.641Z,29.30
2019-04-30T21:13:45.332Z,28.90
2019-04-30T21:16:15.146Z,29.90
2019-04-30T21:19:07.919Z,29.60
2019-04-30T21:21:52.504Z,29.80
2019-04-30T21:24:32.388Z,30.40
2019-04-30T21:27:32.368Z,29.40
2019-04-30T21:30:01.521Z,29.90
2019-04-30T21:33:13.920Z,30.00
2019-04-30T21:35:48.623Z,30.10
2019-04-30T21:38:29.193Z,30.80
2019-04-30T21:41:56.585Z,29.90
2019-04-30T21:44:38.083Z,30.40
2019-04-30T21:50:29.617Z,30.60
2019-04-30T21:55:55.242Z,31.10
2019-04-30T21:58:32.849Z,32.00
2019-04-30T22:01:24.826Z,32.00
2019-04-30T22:03:56.059Z,31.00
2019-04-30T22:06:27.182Z,31.60
2019-04-30T22:08:59.955Z,31.60
2019-04-30T22:11:31.420Z,31.90
2019-04-30T22:14:03.220Z,31.90
2019-04-30T22:16:37.117Z,31.70
2019-04-30T22:19:15.153Z,32.30
2019-04-30T22:21:45.310Z,32.10
2019-04-30T22:24:17.878Z,32.60
2019-04-30T22:26:53.323Z,32.20
2019-04-30T22:29:23.450Z,32.80
2019-04-30T22:31:59.463Z,32.20
2019-04-30T22:34:29.216Z,32.30
2019-04-30T22:37:01.112Z,32.60
2019-04-30T22:39:39.537Z,32.40
2019-04-30T22:42:41.221Z,32.20
2019-04-30T22:45:32.149Z,31.70
2019-04-30T22:48:04.733Z,31.80
2019-04-30T22:50:38.435Z,32.40
2019-04-30T22:53:12.143Z,32.50
2019-04-30T22:55:45.622Z,32.70
2019-04-30T22:58:25.537Z,32.40
2019-04-30T23:01:09.923Z,32.10
2019-04-30T23:03:45.885Z,32.60
2019-04-30T23:06:25.833Z,32.70
2019-04-30T23:09:02.252Z,32.70
2019-04-30T23:11:32.425Z,32.70
2019-04-30T23:14:06.074Z,33.30
2019-04-30T23:16:40.654Z,33.20
2019-04-30T23:19:10.705Z,32.90
2019-04-30T23:21:42.539Z,33.20
2019-04-30T23:24:15.313Z,32.90
2019-04-30T23:26:46.484Z,33.20
2019-04-30T23:29:19.502Z,33.30
2019-04-30T23:31:49.554Z,33.30
2019-04-30T23:34:33.029Z,33.60
2019-04-30T23:37:12.507Z,33.30
2019-04-30T23:39:48.244Z,33.70
2019-04-30T23:42:19.425Z,33.70
2019-04-30T23:52:13.367Z,33.70
2019-04-30T23:54:43.080Z,33.10
2019-04-30T23:57:15.457Z,33.30
2019-04-30T23:59:47.837Z,33.40
